Flight Number: EUR2346 Duration: 1:10
Departure: Stockholm Arlanda (ESSA) at 18:20 Distance: 317 Nm
Arrival: Gdansk Zechowo (EPGD) at 19:30 Equipment: CRJ700

Weather Information
Stockholm / Arlanda, Sweden (ESSA) 59-39N 017-57E 61M Jan 21, 2019 - 07:20 AM EST / 2019.01.21 1220 UTC
Wind: Variable at 2 MPH (2 KT):0
Visibility: greater than 7 mile(s):0 Temperature: 6 F (-14 C) Dew Point: 3 F (-16 C) Relative Humidity: 84% Pressure (altimeter): 30.00 in. Hg (1016 hPa)
ob: ESSA 211220Z VRB02KT CAVOK M14/M16 Q1016 R01L/12//60 R08/15//66 R01R/SNOCLO NOSIG cycle: 12
Sunrise: 07:28 Sunset: 14:30 (UTC)

Gdansk-Rebiechowo, Poland (EPGD) 54-23N 018-28E 138M Jan 21, 2019 - 07:30 AM EST / 2019.01.21 1230 UTC
Wind: from the WSW (250 degrees) at 9 MPH (8 KT):0
Visibility: greater than 7 mile(s):0
Sky conditions: mostly cloudy Temperature: 28 F (-2 C)
Windchill: 19 F (-7 C):1 Dew Point: 24 F (-4 C) Relative Humidity: 86% Pressure (altimeter): 30.06 in. Hg (1018 hPa)
ob: EPGD 211230Z 25008KT 9999 SCT010 BKN046 M02/M04 Q1018 R11/550195 cycle: 12
Sunrise: 06:55 Sunset: 14:59 (UTC)

TAF:2019/01/21 12:33 TAF TAF EPGD 211130Z 2112/2212 26010KT 9999 BKN012 PROB40 TEMPO 2112/2114 -SN BKN007 BECMG 2115/2118 20005KT 4000 BR TEMPO 2200/2212 -SN BKN005

Previous Pireps for this route
Date Aircraft Flight time Fuel used Landing rate On time
2015-01-18CRJ7001.1530190No
2015-05-07CRJ7000.5833110Yes
2015-05-08CRJ7000.5533420Yes
2015-06-10CRJ70001.213990-192Yes
2015-07-04CRJ7001.152988-239Yes
2016-01-29B73701.1911093-147Charter
(pireps marked green are flown by you)

Route map